MKJS/MBJ METAR and TAF weather

Enter ICAO airport designator
Station Type Date Time Source
MKJS METAR 2020/11/27 15:00 UTC NOAA

MKJS 271500Z 11007KT 9999 FEW024 SCT040 28/22 Q1015


Station Type Date Time Source
MKJS Decoded METAR 2020/11/27 15:00 UTC NOAA

Montego Bay / Sangster, Jamaica (MKJS) 18-30N 077-55W 8M
Nov 27, 2020 - 10:00 AM EST / 2020.11.27 1500 UTC
Wind: from the ESE (110 degrees) at 8 MPH (7 KT):0
Visibility: greater than 7 mile(s):0
Sky conditions: partly cloudy
Temperature: 82 F (28 C)
Dew Point: 71 F (22 C)
Relative Humidity: 69%
Pressure (altimeter): 29.97 in. Hg (1015 hPa)
ob: MKJS 271500Z 11007KT 9999 FEW024 SCT040 28/22 Q1015
cycle: 15

Station Type Date Time Source
MKJS TAF 2020/11/27 12:15 UTC NOAA

TAF MKJS 271115Z 2712/2812 12007KT 9999 FEW022
BECMG 2713/2715 08018KT
BECMG 2801/2803 12006KT

Example: see airport list